Time;durP1;ratioP1;P1;durP2;ratioP2;P2;SDS_P1;SDS_P2;PMS_P1;PMS_P2;Temp;Humidity;BMP_temperature;BMP_pressure;BME280_temperature;BME280_humidity;BME280_pressure;Samples;Min_cycle;Max_cycle;Signal;HPM_P1;HPM_P2
2023/03/10 00:02:07;;;;;;;;;;;11.80;99.90;;;;;;7342989;19;109957;-91
2023/03/10 00:04:34;;;;;;;;;;;11.80;99.90;;;;;;7339636;19;111630;-89
2023/03/10 00:07:01;;;;;;;;;;;11.80;99.90;;;;;;7342733;19;108532;-90
2023/03/10 00:09:28;;;;;;;;;;;11.70;99.90;;;;;;7341669;19;109251;-90
2023/03/10 00:11:55;;;;;;;;;;;11.70;99.90;;;;;;7340575;19;112685;-90
2023/03/10 00:14:22;;;;;;;;;;;11.70;99.90;;;;;;7345168;19;108563;-91
2023/03/10 00:16:49;;;;;;;;;;;11.70;99.90;;;;;;7340950;19;113156;-90
2023/03/10 00:19:16;;;;;;;;;;;11.70;99.90;;;;;;7342185;19;108824;-90
2023/03/10 00:21:44;;;;;;;;;;;11.70;99.90;;;;;;7342189;19;109205;-89
2023/03/10 00:24:11;;;;;;;;;;;11.70;99.90;;;;;;7342072;19;110017;-90
2023/03/10 00:26:38;;;;;;;;;;;11.70;99.90;;;;;;7339920;19;108272;-91
2023/03/10 00:29:05;;;;;;;;;;;11.70;99.90;;;;;;7342123;19;109741;-90
2023/03/10 00:31:33;;;;;;;;;;;11.70;99.90;;;;;;7334735;19;113063;-90
2023/03/10 00:34:00;;;;;;;;;;;11.70;99.90;;;;;;7338805;19;109973;-90
2023/03/10 00:36:28;;;;;;;;;;;11.70;99.90;;;;;;7345231;19;110249;-90
2023/03/10 00:38:56;;;;;;;;;;;11.70;99.90;;;;;;7341574;19;109102;-90
2023/03/10 00:41:26;;;;;;;;;;;11.70;99.90;;;;;;7339063;19;111230;-90
2023/03/10 00:43:53;;;;;;;;;;;11.70;99.90;;;;;;7340991;19;110332;-90
2023/03/10 00:46:20;;;;;;;;;;;11.70;99.90;;;;;;7341345;19;110362;-91
2023/03/10 00:48:47;;;;;;;;;;;11.70;99.90;;;;;;7345117;19;111444;-90
2023/03/10 00:51:14;;;;;;;;;;;11.70;99.90;;;;;;7338998;19;109827;-91
2023/03/10 00:53:41;;;;;;;;;;;11.60;99.90;;;;;;7341752;19;110757;-90
2023/03/10 00:56:16;;;;;;;;;;;11.70;99.90;;;;;;7341604;19;111183;-89
2023/03/10 00:58:44;;;;;;;;;;;11.70;99.90;;;;;;7343734;19;110698;-91
2023/03/10 01:01:13;;;;;;;;;;;11.70;99.90;;;;;;7340500;19;112065;-90
2023/03/10 01:03:40;;;;;;;;;;;11.70;99.90;;;;;;7340519;19;109381;-92
2023/03/10 01:06:07;;;;;;;;;;;11.70;99.90;;;;;;7341457;19;109271;-90
2023/03/10 01:08:34;;;;;;;;;;;11.70;99.90;;;;;;7340538;19;110356;-90
2023/03/10 01:11:01;;;;;;;;;;;11.60;99.90;;;;;;7338626;19;112396;-91
2023/03/10 01:13:28;;;;;;;;;;;11.70;99.90;;;;;;7339799;19;108420;-89
2023/03/10 01:15:55;;;;;;;;;;;11.70;99.90;;;;;;7343030;19;109424;-90
2023/03/10 01:18:22;;;;;;;;;;;11.70;99.90;;;;;;7339999;19;111772;-90
2023/03/10 01:20:53;;;;;;;;;;;11.70;99.90;;;;;;7345033;19;108985;-91
2023/03/10 01:23:21;;;;;;;;;;;11.70;99.90;;;;;;7338398;19;110599;-89
2023/03/10 01:25:48;;;;;;;;;;;11.70;99.90;;;;;;7340009;19;108927;-89
2023/03/10 01:28:15;;;;;;;;;;;11.60;99.90;;;;;;7337462;19;108840;-90
2023/03/10 01:30:43;;;;;;;;;;;11.70;99.90;;;;;;7338439;19;110463;-91
2023/03/10 01:33:11;;;;;;;;;;;11.60;99.90;;;;;;7339970;19;109061;-89
2023/03/10 01:35:38;;;;;;;;;;;11.60;99.90;;;;;;7340542;19;109475;-91
2023/03/10 01:38:06;;;;;;;;;;;11.70;99.90;;;;;;7338246;19;110208;-91
2023/03/10 01:40:33;;;;;;;;;;;11.70;99.90;;;;;;7346208;19;110517;-90
2023/03/10 01:43:18;;;;;;;;;;;11.70;99.90;;;;;;7341566;19;113386;-91
2023/03/10 01:45:45;;;;;;;;;;;11.70;99.90;;;;;;7344386;19;109563;-90
2023/03/10 01:48:13;;;;;;;;;;;11.70;99.90;;;;;;7348135;19;112205;-90
2023/03/10 01:50:40;;;;;;;;;;;11.60;99.90;;;;;;7347272;19;110404;-90
2023/03/10 01:53:07;;;;;;;;;;;11.60;99.90;;;;;;7349884;19;108776;-92
2023/03/10 01:55:36;;;;;;;;;;;11.60;99.90;;;;;;7349236;19;109189;-88
2023/03/10 01:58:04;;;;;;;;;;;11.60;99.90;;;;;;7348382;19;109135;-90
2023/03/10 02:00:31;;;;;;;;;;;11.60;99.90;;;;;;7345621;19;112128;-91
2023/03/10 02:03:21;;;;;;;;;;;11.60;99.90;;;;;;7352537;19;109226;-91
2023/03/10 02:06:08;;;;;;;;;;;11.50;99.90;;;;;;7348356;19;108971;-89
2023/03/10 02:08:44;;;;;;;;;;;11.50;99.90;;;;;;7348421;19;112630;-90
2023/03/10 02:11:12;;;;;;;;;;;11.50;99.90;;;;;;7345189;19;110213;-90
2023/03/10 02:13:39;;;;;;;;;;;11.50;99.90;;;;;;7347204;19;108631;-90
2023/03/10 02:16:06;;;;;;;;;;;11.40;99.90;;;;;;7345703;19;110529;-90
2023/03/10 02:18:33;;;;;;;;;;;11.40;99.90;;;;;;7347621;19;112754;-89
2023/03/10 02:21:15;;;;;;;;;;;11.40;99.90;;;;;;7346698;19;108822;-90
2023/03/10 02:23:51;;;;;;;;;;;11.40;99.90;;;;;;7347601;19;112731;-90
2023/03/10 02:26:47;;;;;;;;;;;11.40;99.90;;;;;;7349870;19;113055;-91
2023/03/10 02:29:17;;;;;;;;;;;11.40;99.90;;;;;;7345477;19;110863;-90
2023/03/10 02:31:44;;;;;;;;;;;11.40;99.90;;;;;;7342162;19;110124;-91
2023/03/10 02:34:12;;;;;;;;;;;11.40;99.90;;;;;;7344634;19;110931;-90
2023/03/10 02:36:38;;;;;;;;;;;11.30;99.90;;;;;;7345781;19;108794;-89
2023/03/10 02:39:05;;;;;;;;;;;11.30;99.90;;;;;;7347884;19;113177;-90
2023/03/10 02:41:34;;;;;;;;;;;11.40;99.90;;;;;;7344013;19;108673;-91
2023/03/10 02:44:03;;;;;;;;;;;11.40;99.90;;;;;;7347900;19;111815;-91
2023/03/10 02:46:30;;;;;;;;;;;11.40;99.90;;;;;;7344574;19;113773;-91
2023/03/10 02:48:58;;;;;;;;;;;11.40;99.90;;;;;;7351652;19;108361;-91
2023/03/10 02:51:28;;;;;;;;;;;11.40;99.90;;;;;;7347145;19;110166;-90
2023/03/10 02:53:55;;;;;;;;;;;11.40;99.90;;;;;;7343024;19;109017;-91
2023/03/10 02:56:22;;;;;;;;;;;11.40;99.90;;;;;;7344687;19;109343;-90
2023/03/10 02:58:49;;;;;;;;;;;11.40;99.90;;;;;;7344493;19;109833;-91
2023/03/10 03:01:16;;;;;;;;;;;11.40;99.90;;;;;;7346161;19;108479;-90
2023/03/10 03:03:43;;;;;;;;;;;11.40;99.90;;;;;;7342508;19;110435;-89
2023/03/10 03:06:10;;;;;;;;;;;11.40;99.90;;;;;;7344625;19;110189;-92
2023/03/10 03:08:38;;;;;;;;;;;11.40;99.90;;;;;;7346357;19;109755;-91
2023/03/10 03:11:05;;;;;;;;;;;11.40;99.90;;;;;;7351911;19;113828;-91
2023/03/10 03:13:32;;;;;;;;;;;11.40;99.90;;;;;;7343102;19;110082;-90
2023/03/10 03:15:59;;;;;;;;;;;11.40;99.90;;;;;;7344549;19;109124;-90
2023/03/10 03:18:26;;;;;;;;;;;11.40;99.90;;;;;;7343491;19;110633;-91
2023/03/10 03:20:53;;;;;;;;;;;11.40;99.90;;;;;;7343388;19;108734;-91
2023/03/10 03:23:20;;;;;;;;;;;11.40;99.90;;;;;;7345708;19;108945;-91
2023/03/10 03:25:47;;;;;;;;;;;11.40;99.90;;;;;;7342685;19;110510;-90
2023/03/10 03:28:14;;;;;;;;;;;11.40;99.90;;;;;;7346179;19;109015;-90
2023/03/10 03:30:42;;;;;;;;;;;11.40;99.90;;;;;;7342538;19;112043;-91
2023/03/10 03:33:09;;;;;;;;;;;11.40;99.90;;;;;;7351749;19;109842;-90
2023/03/10 03:35:37;;;;;;;;;;;11.40;99.90;;;;;;7343923;19;109000;-91
2023/03/10 03:38:05;;;;;;;;;;;11.40;99.90;;;;;;7346500;19;110442;-91
2023/03/10 03:40:33;;;;;;;;;;;11.40;99.90;;;;;;7344338;19;109306;-91
2023/03/10 03:43:00;;;;;;;;;;;11.40;99.90;;;;;;7346385;19;110980;-90
2023/03/10 03:45:28;;;;;;;;;;;11.40;99.90;;;;;;7340374;19;110559;-91
2023/03/10 03:47:55;;;;;;;;;;;11.40;99.90;;;;;;7346445;19;108526;-91
2023/03/10 03:50:22;;;;;;;;;;;11.40;99.90;;;;;;7342659;19;109663;-92
2023/03/10 03:52:50;;;;;;;;;;;11.40;99.90;;;;;;7349338;19;112809;-92
2023/03/10 03:55:18;;;;;;;;;;;11.40;99.90;;;;;;7345860;19;111161;-91
2023/03/10 03:57:45;;;;;;;;;;;11.40;99.90;;;;;;7341312;19;112027;-91
2023/03/10 04:00:17;;;;;;;;;;;11.40;99.90;;;;;;7343844;19;110081;-91
2023/03/10 04:02:44;;;;;;;;;;;11.40;99.90;;;;;;7343592;19;111740;-92
2023/03/10 04:05:11;;;;;;;;;;;11.30;99.90;;;;;;7344265;19;112967;-91
2023/03/10 04:07:39;;;;;;;;;;;11.30;99.90;;;;;;7339756;19;108844;-92
2023/03/10 04:10:07;;;;;;;;;;;11.20;99.90;;;;;;7342961;19;109109;-91
2023/03/10 04:12:34;;;;;;;;;;;11.20;99.90;;;;;;7341835;19;109579;-91
2023/03/10 04:15:01;;;;;;;;;;;11.20;99.90;;;;;;7347543;19;108431;-92
2023/03/10 04:17:28;;;;;;;;;;;11.20;99.90;;;;;;7343528;19;113616;-91
2023/03/10 04:19:55;;;;;;;;;;;11.10;99.90;;;;;;7343176;19;108490;-91
2023/03/10 04:22:33;;;;;;;;;;;11.10;99.90;;;;;;7344447;19;108852;-92
2023/03/10 04:25:00;;;;;;;;;;;11.10;99.90;;;;;;7344784;19;108807;-91
2023/03/10 04:27:27;;;;;;;;;;;11.10;99.90;;;;;;7343453;19;109761;-91
2023/03/10 04:29:54;;;;;;;;;;;11.10;99.90;;;;;;7342626;19;109944;-92
2023/03/10 04:32:21;;;;;;;;;;;11.10;99.90;;;;;;7343289;19;109392;-92
2023/03/10 04:34:48;;;;;;;;;;;11.10;99.90;;;;;;7343286;19;109287;-92
2023/03/10 04:37:15;;;;;;;;;;;11.10;99.90;;;;;;7346261;19;111724;-91
2023/03/10 04:39:42;;;;;;;;;;;11.10;99.90;;;;;;7341492;19;108892;-92
2023/03/10 04:42:09;;;;;;;;;;;11.10;99.90;;;;;;7343767;19;110751;-91
2023/03/10 04:44:39;;;;;;;;;;;11.10;99.90;;;;;;7342419;19;112343;-92
2023/03/10 04:47:09;;;;;;;;;;;11.10;99.90;;;;;;7344089;19;108483;-92
2023/03/10 04:49:37;;;;;;;;;;;11.10;99.90;;;;;;7345443;19;109831;-91
2023/03/10 04:52:04;;;;;;;;;;;11.10;99.90;;;;;;7341276;19;110092;-92
2023/03/10 04:54:31;;;;;;;;;;;11.10;99.90;;;;;;7341833;19;112327;-92
2023/03/10 04:56:58;;;;;;;;;;;11.10;99.90;;;;;;7342378;19;111762;-91
2023/03/10 04:59:25;;;;;;;;;;;11.10;99.90;;;;;;7347792;19;111554;-91
2023/03/10 05:01:52;;;;;;;;;;;11.10;99.90;;;;;;7344041;19;109274;-92
2023/03/10 05:04:19;;;;;;;;;;;11.00;99.90;;;;;;7342284;19;108898;-93
2023/03/10 05:06:52;;;;;;;;;;;11.00;99.90;;;;;;7340993;19;109626;-91
2023/03/10 05:09:19;;;;;;;;;;;11.00;99.90;;;;;;7343780;19;108966;-91
2023/03/10 05:11:46;;;;;;;;;;;11.00;99.90;;;;;;7339383;19;109556;-91
2023/03/10 05:14:13;;;;;;;;;;;11.00;99.90;;;;;;7342165;19;110369;-92
2023/03/10 05:16:40;;;;;;;;;;;11.00;99.90;;;;;;7341995;19;111421;-92
2023/03/10 05:19:07;;;;;;;;;;;11.00;99.90;;;;;;7342471;19;110095;-92
2023/03/10 05:21:34;;;;;;;;;;;11.00;99.90;;;;;;7363291;19;108338;-93
2023/03/10 05:24:01;;;;;;;;;;;11.00;99.90;;;;;;7357167;19;110204;-91
2023/03/10 05:26:29;;;;;;;;;;;11.00;99.90;;;;;;7354381;19;108452;-91
2023/03/10 05:29:00;;;;;;;;;;;11.00;99.90;;;;;;7355764;19;109253;-90
2023/03/10 05:31:27;;;;;;;;;;;11.00;99.90;;;;;;7352776;19;110211;-91
2023/03/10 05:33:54;;;;;;;;;;;11.00;99.90;;;;;;7355323;19;109676;-91
2023/03/10 05:36:21;;;;;;;;;;;10.90;99.90;;;;;;7354508;19;108942;-91
2023/03/10 05:38:49;;;;;;;;;;;10.90;99.90;;;;;;7353274;19;112574;-91
2023/03/10 05:41:16;;;;;;;;;;;10.90;99.90;;;;;;7354255;19;108357;-91
2023/03/10 05:43:43;;;;;;;;;;;10.90;99.90;;;;;;7360028;19;111114;-91
2023/03/10 05:46:10;;;;;;;;;;;10.90;99.90;;;;;;7353272;19;108532;-92
2023/03/10 05:48:38;;;;;;;;;;;10.80;99.90;;;;;;7355219;19;108943;-91
2023/03/10 05:51:09;;;;;;;;;;;10.80;99.90;;;;;;7353325;19;110294;-91
2023/03/10 05:53:36;;;;;;;;;;;10.80;99.90;;;;;;7354633;19;109246;-91
2023/03/10 05:56:08;;;;;;;;;;;10.80;99.90;;;;;;7355187;19;108815;-91
2023/03/10 05:58:35;;;;;;;;;;;10.80;99.90;;;;;;7352973;19;109630;-91
2023/03/10 06:01:02;;;;;;;;;;;10.70;99.90;;;;;;7355879;19;108667;-91
2023/03/10 06:03:31;;;;;;;;;;;10.80;99.90;;;;;;7359242;19;108275;-91
2023/03/10 06:05:59;;;;;;;;;;;10.70;99.90;;;;;;7355663;19;108531;-93
2023/03/10 06:08:29;;;;;;;;;;;10.70;99.90;;;;;;7354050;19;110621;-92
2023/03/10 06:10:56;;;;;;;;;;;10.70;99.90;;;;;;7357582;19;112611;-92
2023/03/10 06:13:24;;;;;;;;;;;10.70;99.90;;;;;;7355672;19;109097;-92
2023/03/10 06:15:55;;;;;;;;;;;10.70;99.90;;;;;;7355224;19;112941;-92
2023/03/10 06:18:22;;;;;;;;;;;10.70;99.90;;;;;;7357164;19;112110;-92
2023/03/10 06:20:51;;;;;;;;;;;10.70;99.90;;;;;;7358220;19;108550;-92
2023/03/10 06:23:19;;;;;;;;;;;10.60;99.90;;;;;;7357504;19;111754;-93
2023/03/10 06:26:00;;;;;;;;;;;10.70;99.90;;;;;;7358610;19;112003;-92
2023/03/10 06:28:31;;;;;;;;;;;10.60;99.90;;;;;;7354853;19;111374;-92
2023/03/10 06:31:00;;;;;;;;;;;10.70;99.90;;;;;;7349018;19;109764;-92
2023/03/10 06:33:28;;;;;;;;;;;10.60;99.90;;;;;;7343921;19;108884;-93
2023/03/10 06:35:55;;;;;;;;;;;10.60;99.90;;;;;;7344090;19;111671;-93
2023/03/10 06:38:22;;;;;;;;;;;10.70;99.90;;;;;;7348669;19;111472;-94
2023/03/10 06:40:50;;;;;;;;;;;10.70;99.90;;;;;;7348208;19;108766;-93
2023/03/10 06:43:17;;;;;;;;;;;10.70;99.90;;;;;;7346741;19;110252;-94
2023/03/10 06:45:45;;;;;;;;;;;10.70;99.90;;;;;;7346386;19;112907;-92
2023/03/10 06:48:12;;;;;;;;;;;10.70;99.90;;;;;;7352843;19;108605;-92
2023/03/10 06:50:42;;;;;;;;;;;10.70;99.90;;;;;;7346553;19;112709;-93
2023/03/10 06:53:10;;;;;;;;;;;10.70;99.90;;;;;;7345550;19;108477;-93
2023/03/10 06:55:37;;;;;;;;;;;10.80;99.90;;;;;;7343065;19;109543;-92
2023/03/10 06:58:04;;;;;;;;;;;10.70;99.90;;;;;;7349979;19;111572;-92
2023/03/10 07:00:31;;;;;;;;;;;10.80;99.90;;;;;;7344081;19;108822;-92
2023/03/10 07:02:58;;;;;;;;;;;10.80;99.90;;;;;;7348034;19;111548;-92
2023/03/10 07:05:26;;;;;;;;;;;10.80;99.90;;;;;;7346578;19;113221;-92
2023/03/10 07:07:53;;;;;;;;;;;10.80;99.90;;;;;;7349673;19;108469;-91
2023/03/10 07:10:21;;;;;;;;;;;10.80;99.90;;;;;;7352500;19;112005;-92
2023/03/10 07:12:53;;;;;;;;;;;10.90;99.90;;;;;;7346542;19;108892;-92
2023/03/10 07:15:21;;;;;;;;;;;10.90;99.90;;;;;;7348659;19;110248;-92
2023/03/10 07:17:48;;;;;;;;;;;10.90;99.90;;;;;;7345987;19;112010;-92
2023/03/10 07:20:16;;;;;;;;;;;11.00;99.90;;;;;;7348004;19;108278;-92
2023/03/10 07:22:43;;;;;;;;;;;11.00;99.90;;;;;;7351226;19;111462;-92
2023/03/10 07:25:10;;;;;;;;;;;11.10;99.90;;;;;;7346028;19;112627;-91
2023/03/10 07:27:37;;;;;;;;;;;11.10;99.90;;;;;;7344737;19;108356;-91
2023/03/10 07:30:04;;;;;;;;;;;11.10;99.90;;;;;;7346953;19;110121;-93
2023/03/10 07:32:31;;;;;;;;;;;11.20;99.90;;;;;;7350276;19;112705;-91
2023/03/10 07:34:59;;;;;;;;;;;11.20;99.90;;;;;;7348373;19;109074;-91
2023/03/10 07:37:26;;;;;;;;;;;11.30;99.90;;;;;;7347019;19;112836;-91
2023/03/10 07:39:53;;;;;;;;;;;11.40;99.90;;;;;;7347002;19;108990;-92
2023/03/10 07:42:21;;;;;;;;;;;11.50;99.90;;;;;;7345964;19;111588;-92
2023/03/10 07:44:48;;;;;;;;;;;11.60;99.90;;;;;;7344660;19;110136;-93
2023/03/10 07:47:14;;;;;;;;;;;11.70;99.90;;;;;;7345615;19;110032;-93
2023/03/10 07:49:45;;;;;;;;;;;11.70;99.90;;;;;;7345155;19;111515;-91
2023/03/10 07:52:15;;;;;;;;;;;11.80;99.90;;;;;;7345009;19;113255;-91
2023/03/10 07:54:43;;;;;;;;;;;11.70;99.90;;;;;;7350985;19;108825;-91
2023/03/10 07:57:13;;;;;;;;;;;11.70;99.90;;;;;;7344598;19;109162;-92
2023/03/10 07:59:41;;;;;;;;;;;11.80;99.90;;;;;;7346422;19;108326;-91
2023/03/10 08:02:10;;;;;;;;;;;11.80;99.90;;;;;;7345883;19;111459;-92
2023/03/10 08:04:37;;;;;;;;;;;11.70;99.90;;;;;;7346281;19;112655;-91
2023/03/10 08:07:04;;;;;;;;;;;11.70;99.90;;;;;;7345752;19;108418;-92
2023/03/10 08:09:32;;;;;;;;;;;11.80;99.90;;;;;;7348382;19;111295;-92
2023/03/10 08:11:59;;;;;;;;;;;11.80;99.90;;;;;;7344800;19;112652;-94
2023/03/10 08:14:30;;;;;;;;;;;11.80;99.90;;;;;;7351974;19;108348;-92
2023/03/10 08:16:57;;;;;;;;;;;11.80;99.90;;;;;;7346094;19;112965;-91
2023/03/10 08:19:25;;;;;;;;;;;11.80;99.90;;;;;;7345196;19;109431;-92
2023/03/10 08:21:56;;;;;;;;;;;11.80;99.90;;;;;;7345116;19;111807;-91
2023/03/10 08:24:26;;;;;;;;;;;11.80;99.90;;;;;;7344634;19;112672;-91
2023/03/10 08:26:53;;;;;;;;;;;11.70;99.90;;;;;;7345137;19;108639;-91
2023/03/10 08:29:20;;;;;;;;;;;11.60;99.90;;;;;;7345529;19;111711;-92
2023/03/10 08:31:48;;;;;;;;;;;11.60;99.90;;;;;;7343670;19;113130;-90
2023/03/10 08:34:15;;;;;;;;;;;11.60;99.90;;;;;;7342500;19;108843;-90
2023/03/10 08:36:42;;;;;;;;;;;11.50;99.90;;;;;;7346576;19;109663;-89
2023/03/10 08:39:10;;;;;;;;;;;11.50;99.90;;;;;;7338747;19;108448;-89
2023/03/10 08:41:44;;;;;;;;;;;11.50;99.90;;;;;;7339353;19;108921;-88
2023/03/10 08:44:14;;;;;;;;;;;11.50;99.90;;;;;;7338333;19;109170;-88
2023/03/10 08:46:42;;;;;;;;;;;11.50;99.90;;;;;;7341280;19;109965;-90
2023/03/10 08:49:13;;;;;;;;;;;11.50;99.90;;;;;;7339079;19;109587;-89
2023/03/10 08:51:40;;;;;;;;;;;11.50;99.90;;;;;;7340770;19;108957;-88
2023/03/10 08:54:07;;;;;;;;;;;11.40;99.90;;;;;;7338044;19;108831;-89
2023/03/10 08:56:34;;;;;;;;;;;11.40;99.90;;;;;;7338861;19;111810;-89
2023/03/10 08:59:01;;;;;;;;;;;11.40;99.90;;;;;;7346219;19;109512;-88
2023/03/10 09:01:30;;;;;;;;;;;11.40;99.90;;;;;;7338803;19;109344;-89
2023/03/10 09:03:58;;;;;;;;;;;11.40;99.90;;;;;;7340085;19;110415;-88
2023/03/10 09:06:25;;;;;;;;;;;11.40;99.90;;;;;;7338071;19;109545;-88
2023/03/10 09:08:52;;;;;;;;;;;11.40;99.90;;;;;;7338734;19;109761;-88
2023/03/10 09:11:24;;;;;;;;;;;11.40;99.90;;;;;;7338026;19;113535;-89
2023/03/10 09:13:51;;;;;;;;;;;11.50;99.90;;;;;;7339242;19;108674;-89
2023/03/10 09:16:19;;;;;;;;;;;11.40;99.90;;;;;;7338490;19;109100;-89
2023/03/10 09:18:46;;;;;;;;;;;11.40;99.90;;;;;;7335035;19;112391;-88
2023/03/10 09:21:14;;;;;;;;;;;11.40;99.90;;;;;;7342960;19;108371;-88
2023/03/10 09:23:42;;;;;;;;;;;11.40;99.90;;;;;;7335785;19;110665;-87
2023/03/10 09:26:09;;;;;;;;;;;11.30;99.90;;;;;;7335659;19;108523;-87
2023/03/10 09:28:37;;;;;;;;;;;11.30;99.90;;;;;;7339379;19;108143;-88
2023/03/10 09:31:04;;;;;;;;;;;11.30;99.90;;;;;;7336132;19;112838;-87
2023/03/10 09:33:31;;;;;;;;;;;11.20;99.90;;;;;;7335757;19;109941;-88
2023/03/10 09:36:01;;;;;;;;;;;11.20;99.90;;;;;;7336856;19;109898;-88
2023/03/10 09:38:34;;;;;;;;;;;11.20;99.90;;;;;;7335684;19;110154;-87
2023/03/10 09:41:03;;;;;;;;;;;11.30;99.90;;;;;;7334970;19;108930;-87
2023/03/10 09:43:37;;;;;;;;;;;11.30;99.90;;;;;;7342258;19;110430;-88
2023/03/10 09:46:07;;;;;;;;;;;11.30;99.90;;;;;;7334836;19;108759;-86
2023/03/10 09:48:55;;;;;;;;;;;11.30;99.90;;;;;;7338233;19;111925;-87
2023/03/10 09:51:24;;;;;;;;;;;11.30;99.90;;;;;;7336377;19;110929;-87
2023/03/10 09:53:51;;;;;;;;;;;11.40;99.90;;;;;;7335673;19;108562;-87
2023/03/10 09:56:19;;;;;;;;;;;11.30;99.90;;;;;;7336452;19;109063;-88
2023/03/10 09:58:49;;;;;;;;;;;11.40;99.90;;;;;;7333551;19;111296;-87
2023/03/10 10:01:17;;;;;;;;;;;11.40;99.90;;;;;;7336507;19;109288;-88
2023/03/10 10:03:50;;;;;;;;;;;11.50;99.90;;;;;;7342635;19;109163;-87
2023/03/10 10:06:22;;;;;;;;;;;11.50;99.90;;;;;;7338209;19;109028;-88
2023/03/10 10:08:56;;;;;;;;;;;11.50;99.90;;;;;;7343744;19;112708;-88
2023/03/10 10:11:32;;;;;;;;;;;11.50;99.90;;;;;;7341084;19;112756;-87
2023/03/10 10:14:16;;;;;;;;;;;11.60;99.90;;;;;;7344013;19;108462;-88
2023/03/10 10:17:00;;;;;;;;;;;11.50;99.90;;;;;;7345252;19;110857;-88
2023/03/10 10:19:27;;;;;;;;;;;11.60;99.90;;;;;;7342979;19;112781;-88
2023/03/10 10:21:54;;;;;;;;;;;11.60;99.90;;;;;;7345932;19;108792;-88
2023/03/10 10:24:22;;;;;;;;;;;11.60;99.90;;;;;;7342800;19;108633;-89
2023/03/10 10:26:48;;;;;;;;;;;11.60;99.90;;;;;;7346959;19;110577;-90
2023/03/10 10:29:15;;;;;;;;;;;11.60;99.90;;;;;;7344299;19;110005;-90
2023/03/10 10:32:00;;;;;;;;;;;11.60;99.90;;;;;;7343747;19;112288;-89
2023/03/10 10:34:26;;;;;;;;;;;11.60;99.90;;;;;;7346829;19;108230;-89
2023/03/10 10:36:54;;;;;;;;;;;11.60;99.90;;;;;;7345570;19;111194;-91
2023/03/10 10:39:21;;;;;;;;;;;11.60;99.90;;;;;;7346515;19;113465;-91
2023/03/10 10:41:48;;;;;;;;;;;11.60;99.90;;;;;;7345081;19;110531;-91
2023/03/10 10:44:16;;;;;;;;;;;11.60;99.90;;;;;;7347767;19;108319;-90
2023/03/10 10:46:53;;;;;;;;;;;11.60;99.90;;;;;;7343665;19;112716;-90
2023/03/10 10:49:22;;;;;;;;;;;11.60;99.90;;;;;;7352779;19;108808;-90
2023/03/10 10:52:09;;;;;;;;;;;11.60;99.90;;;;;;7343967;19;113192;-90
2023/03/10 10:54:40;;;;;;;;;;;11.70;99.90;;;;;;7347699;19;108675;-90
2023/03/10 10:57:18;;;;;;;;;;;11.70;99.90;;;;;;7346648;19;108335;-91
2023/03/10 10:59:45;;;;;;;;;;;11.70;99.90;;;;;;7344671;19;110462;-90
2023/03/10 11:02:31;;;;;;;;;;;11.70;99.90;;;;;;7347154;19;108380;-91
2023/03/10 11:05:06;;;;;;;;;;;11.70;99.90;;;;;;7347072;19;111073;-91
2023/03/10 11:07:33;;;;;;;;;;;11.80;99.90;;;;;;7345622;19;112141;-91
2023/03/10 11:10:00;;;;;;;;;;;11.80;99.90;;;;;;7346923;19;108665;-91
2023/03/10 11:12:32;;;;;;;;;;;11.70;99.90;;;;;;7352711;19;111697;-92
2023/03/10 11:15:18;;;;;;;;;;;11.70;99.90;;;;;;7342961;19;108577;-91
2023/03/10 11:17:48;;;;;;;;;;;11.60;99.90;;;;;;7344824;19;109324;-92
2023/03/10 11:20:15;;;;;;;;;;;11.60;99.90;;;;;;7348235;19;111683;-91
2023/03/10 11:22:42;;;;;;;;;;;11.60;99.90;;;;;;7344906;19;109141;-91
2023/03/10 11:25:31;;;;;;;;;;;11.60;99.90;;;;;;7347357;19;112397;-91
2023/03/10 11:27:57;;;;;;;;;;;11.60;99.90;;;;;;7346482;19;112800;-92
2023/03/10 11:30:29;;;;;;;;;;;11.60;99.90;;;;;;7345762;19;108387;-91
2023/03/10 11:33:05;;;;;;;;;;;11.60;99.90;;;;;;7346007;19;110650;-93
2023/03/10 11:35:44;;;;;;;;;;;11.60;99.90;;;;;;7350617;19;113263;-92
2023/03/10 11:38:11;;;;;;;;;;;11.60;99.90;;;;;;7343410;19;111649;-92
2023/03/10 11:40:53;;;;;;;;;;;11.60;99.90;;;;;;7341443;19;112939;-91
2023/03/10 11:43:23;;;;;;;;;;;11.60;99.90;;;;;;7342234;19;109436;-92
2023/03/10 11:45:53;;;;;;;;;;;11.60;99.90;;;;;;7341918;19;108976;-91
2023/03/10 11:48:20;;;;;;;;;;;11.60;99.90;;;;;;7339957;19;110411;-91
2023/03/10 11:50:51;;;;;;;;;;;11.70;99.90;;;;;;7339485;19;108696;-90
2023/03/10 11:53:28;;;;;;;;;;;11.70;99.90;;;;;;7343003;19;109987;-92
2023/03/10 11:55:58;;;;;;;;;;;11.70;99.90;;;;;;7342352;19;111763;-92
2023/03/10 11:58:30;;;;;;;;;;;11.70;99.90;;;;;;7345416;19;108374;-90
2023/03/10 12:00:58;;;;;;;;;;;11.70;99.90;;;;;;7341248;19;110109;-91
2023/03/10 12:03:29;;;;;;;;;;;11.70;99.90;;;;;;7342564;19;109009;-93
2023/03/10 12:05:59;;;;;;;;;;;11.70;99.90;;;;;;7341090;19;109414;-93
2023/03/10 12:08:32;;;;;;;;;;;11.70;99.90;;;;;;7341746;19;113390;-92
2023/03/10 12:11:00;;;;;;;;;;;11.70;99.90;;;;;;7343006;19;108500;-93
2023/03/10 12:13:44;;;;;;;;;;;11.80;99.90;;;;;;7341901;19;109007;-92
2023/03/10 12:16:16;;;;;;;;;;;11.80;99.90;;;;;;7339887;19;112941;-93
2023/03/10 12:18:43;;;;;;;;;;;11.90;99.90;;;;;;7348246;19;109325;-92
2023/03/10 12:21:12;;;;;;;;;;;11.90;99.90;;;;;;7340420;19;112870;-91
2023/03/10 12:23:46;;;;;;;;;;;12.00;99.90;;;;;;7341325;19;108208;-91
2023/03/10 12:26:13;;;;;;;;;;;12.00;99.90;;;;;;7342208;19;109300;-92
2023/03/10 12:28:40;;;;;;;;;;;11.90;99.90;;;;;;7341312;19;113252;-91
2023/03/10 12:31:09;;;;;;;;;;;11.80;99.90;;;;;;7341198;19;108563;-91
2023/03/10 12:33:41;;;;;;;;;;;11.70;99.90;;;;;;7340032;19;110322;-91
2023/03/10 12:36:14;;;;;;;;;;;11.60;99.90;;;;;;7339720;19;113300;-91
2023/03/10 12:38:42;;;;;;;;;;;11.50;99.90;;;;;;7340855;19;111983;-92
2023/03/10 12:41:10;;;;;;;;;;;11.30;99.90;;;;;;7345078;19;112634;-91
2023/03/10 12:43:46;;;;;;;;;;;11.30;99.90;;;;;;7340728;19;110165;-92
2023/03/10 12:46:17;;;;;;;;;;;11.20;99.90;;;;;;7338808;19;108593;-91
2023/03/10 12:48:46;;;;;;;;;;;11.20;99.90;;;;;;7339074;19;111426;-93
2023/03/10 12:51:15;;;;;;;;;;;11.20;99.90;;;;;;7341263;19;109034;-92
2023/03/10 12:53:55;;;;;;;;;;;11.20;99.90;;;;;;7341794;19;110699;-93
2023/03/10 12:56:43;;;;;;;;;;;11.10;99.90;;;;;;7340667;19;110357;-92
2023/03/10 12:59:13;;;;;;;;;;;11.00;99.90;;;;;;7340834;19;108468;-93
2023/03/10 13:01:44;;;;;;;;;;;10.90;99.90;;;;;;7341157;19;111946;-93
2023/03/10 13:04:21;;;;;;;;;;;10.90;99.90;;;;;;7346994;19;113111;-92
2023/03/10 13:06:48;;;;;;;;;;;10.90;99.90;;;;;;7338698;19;111131;-91
2023/03/10 13:09:24;;;;;;;;;;;10.90;99.90;;;;;;7340457;19;113151;-91
2023/03/10 13:11:53;;;;;;;;;;;10.80;99.90;;;;;;7339725;19;108703;-93
2023/03/10 13:14:21;;;;;;;;;;;10.70;99.90;;;;;;7340981;19;110481;-91
2023/03/10 13:16:56;;;;;;;;;;;10.70;99.90;;;;;;7341289;19;112712;-91
2023/03/10 13:19:24;;;;;;;;;;;10.60;99.90;;;;;;7338655;19;109462;-93
2023/03/10 13:21:51;;;;;;;;;;;10.60;99.90;;;;;;7340429;19;110307;-91
2023/03/10 13:24:29;;;;;;;;;;;10.60;99.90;;;;;;7339425;19;110093;-92
2023/03/10 13:27:06;;;;;;;;;;;10.60;99.90;;;;;;7346169;19;109015;-91
2023/03/10 13:29:33;;;;;;;;;;;10.50;99.90;;;;;;7345152;19;110807;-92
2023/03/10 13:32:00;;;;;;;;;;;10.40;99.90;;;;;;7343793;19;108486;-91
2023/03/10 13:34:28;;;;;;;;;;;10.30;99.90;;;;;;7369466;19;108736;-92
2023/03/10 13:37:04;;;;;;;;;;;10.30;99.90;;;;;;7372099;19;108865;-92
2023/03/10 13:39:31;;;;;;;;;;;10.30;99.90;;;;;;7372021;19;108179;-91
2023/03/10 13:42:00;;;;;;;;;;;10.30;99.90;;;;;;7379760;19;108176;-92
2023/03/10 13:44:37;;;;;;;;;;;10.30;99.90;;;;;;7380306;19;111984;-91
2023/03/10 13:47:13;;;;;;;;;;;10.20;99.90;;;;;;7383194;19;107813;-91
2023/03/10 13:49:41;;;;;;;;;;;10.20;99.90;;;;;;7387861;19;111262;-91
2023/03/10 13:52:12;;;;;;;;;;;10.30;99.90;;;;;;7381084;19;107938;-91
2023/03/10 13:54:40;;;;;;;;;;;10.30;99.90;;;;;;7380917;19;111423;-91
2023/03/10 13:57:10;;;;;;;;;;;10.20;99.90;;;;;;7380094;19;109099;-91
2023/03/10 13:59:37;;;;;;;;;;;10.10;99.90;;;;;;7380168;19;107547;-91
2023/03/10 14:02:11;;;;;;;;;;;10.00;99.90;;;;;;7382178;19;108790;-91
2023/03/10 14:04:41;;;;;;;;;;;10.10;99.90;;;;;;7379548;19;111675;-91
2023/03/10 14:07:12;;;;;;;;;;;10.00;99.90;;;;;;7379664;19;108155;-91
2023/03/10 14:09:39;;;;;;;;;;;10.00;99.90;;;;;;7380772;19;108129;-92
2023/03/10 14:12:07;;;;;;;;;;;10.00;99.90;;;;;;7385025;19;111487;-93
2023/03/10 14:14:37;;;;;;;;;;;9.80;99.90;;;;;;7379903;19;110446;-92
2023/03/10 14:17:05;;;;;;;;;;;9.30;99.90;;;;;;7379281;19;111154;-92